Latest Weather Observations for Canberra

IDN60801

Issued at 11:32 am EDT Sunday 26 February 2017 (issued every 30 minutes, with the page automatically refreshed every 10 minutes)

About weather observations | Map of weather stations | Latest weather observations for NSW | Other Formats
Station Details ID: 070351 Name: CANBERRA AIRPORT Lat: -35.31 Lon: 149.20 Height: 577.05 m
Data from the previous 72 hours. | See also: Recent months at Canberra
Date/Time
EDT
Temp
°C
App
Temp
°C
Dew
Point
°C
Rel
Hum
%
Delta-T
°C
Wind Press
QNH
hPa
Press
MSL
hPa
Rain since
9am
mm
Dir  Spd
km/h
Gust
km/h
Spd
kts
Gust
kts
26/11:00am 20.4 16.3 7.7 44 6.7 ESE 19 30 10 16 1024.8 1022.4 0.0
26/10:30am 20.2 16.6 8.2 46 6.4 SE 17 28 9 15 1024.9 1022.5 0.0
26/10:00am 18.9 15.4 8.8 52 5.4 SE 17 30 9 16 1025.2 1022.9 0.0
26/09:30am 18.3 14.5 9.1 55 4.9 SE 19 26 10 14 1025.1 1022.8 0.0
26/09:00am 17.3 13.9 9.2 59 4.3 SSE 17 26 9 14 1025.0 1022.6 0.0
26/08:30am 15.8 13.1 8.8 63 3.7 SSE 13 19 7 10 1024.9 1022.5 0.0
26/08:00am 14.1 11.0 7.4 64 3.4 SSE 13 17 7 9 1024.7 1022.3 0.0
26/07:30am 14.0 10.9 7.3 64 3.4 S 13 15 7 8 1024.4 1022.0 0.0
26/07:00am 13.5 10.8 7.5 67 3.0 SSE 11 15 6 8 1024.0 1021.6 0.0
26/06:30am 13.5 10.4 7.3 66 3.1 SSE 13 17 7 9 1023.8 1021.4 0.0
26/06:00am 13.3 10.3 7.7 69 2.8 SSE 13 19 7 10 1023.6 1021.2 0.0
26/05:30am 12.0 9.9 8.3 78 1.9 SSE 9 13 5 7 1023.2 1020.8 0.0
26/05:00am 10.8 8.0 7.1 78 1.8 S 11 13 6 7 1023.0 1020.6 0.0
26/04:30am 12.1 9.2 8.0 76 2.1 S 13 15 7 8 1022.8 1020.4 0.0
26/04:00am 12.6 9.8 8.5 76 2.1 S 13 13 7 7 1022.8 1020.4 0.0
26/03:30am 12.8 10.2 7.9 72 2.5 SSE 11 15 6 8 1022.7 1020.3 0.0
26/03:00am 13.9 10.8 8.7 71 2.7 SSE 15 22 8 12 1022.9 1020.5 0.0
26/02:30am 14.6 11.6 9.4 71 2.8 SE 15 20 8 11 1023.2 1020.8 0.0
26/02:24am 14.5 12.0 9.7 73 2.6 SE 13 19 7 10 1023.3 1020.9 0.0
26/02:00am 14.9 12.1 9.9 72 2.7 SE 15 26 8 14 1023.3 1020.9 0.0
26/01:30am 15.4 11.5 10.8 74 2.5 ESE 22 35 12 19 1023.3 1020.9 0.0
26/01:00am 15.5 12.6 11.1 75 2.4 ESE 17 20 9 11 1023.4 1021.0 0.0
26/12:30am 15.3 13.2 11.1 76 2.3 ESE 13 17 7 9 1023.3 1020.9 0.0
26/12:00am 15.7 14.0 11.3 75 2.4 ESE 11 17 6 9 1023.3 1020.9 0.0
 
Date/Time
EDT
Temp
°C
App
Temp
°C
Dew
Point
°C
Rel
Hum
%
Delta-T
°C
Wind Press
QNH
hPa
Press
MSL
hPa
Rain since
9am
mm
Dir  Spd
km/h
Gust
km/h
Spd
kts
Gust
kts
25/11:30pm 16.1 13.3 11.3 73 2.7 SE 17 26 9 14 1023.6 1021.2 0.0
25/11:00pm 16.2 14.6 11.4 73 2.7 SE 11 19 6 10 1023.3 1020.9 0.0
25/10:30pm 16.3 13.5 11.5 73 2.7 SE 17 28 9 15 1023.2 1020.8 0.0
25/10:20pm 16.3 13.5 11.5 73 2.7 ESE 17 24 9 13 1023.1 1020.7 0.0
25/10:00pm 16.5 14.5 11.4 72 2.8 SE 13 19 7 10 1023.1 1020.7 0.0
25/09:30pm 16.6 13.2 11.3 71 2.9 SE 20 28 11 15 1022.8 1020.4 0.0
25/09:00pm 16.9 12.8 11.6 71 3.0 ESE 24 32 13 17 1022.6 1020.2 0.0
25/08:30pm 17.2 13.0 11.2 68 3.3 SE 24 33 13 18 1022.4 1020.0 0.0
25/08:00pm 17.6 13.3 10.7 64 3.8 ESE 24 35 13 19 1022.0 1019.5 0.0
25/07:30pm 18.2 13.0 10.3 60 4.3 ESE 28 37 15 20 1021.7 1019.2 0.0
25/07:00pm 18.8 13.9 10.1 57 4.8 SE 26 32 14 17 1021.3 1018.9 0.0
25/06:30pm 19.2 14.6 9.7 54 5.2 SE 24 35 13 19 1020.9 1018.5 0.0
25/06:00pm 20.5 16.8 10.3 52 5.7 SE 20 32 11 17 1020.8 1018.4 0.0
25/05:30pm 20.2 16.5 10.3 53 5.5 SE 20 30 11 16 1020.8 1018.4 0.0
25/05:00pm 21.2 17.3 10.7 51 5.9 SE 22 32 12 17 1020.6 1018.2 0.0
25/04:30pm 21.3 17.9 10.5 50 6.1 E 19 26 10 14 1020.9 1018.5 0.0
25/04:00pm 21.4 18.7 10.3 49 6.2 ESE 15 28 8 15 1021.1 1018.7 0.0
25/03:30pm 20.9 18.1 10.1 50 6.0 SE 15 24 8 13 1021.5 1019.1 0.0
25/03:00pm 19.9 15.9 10.3 54 5.3 S 22 30 12 16 1022.0 1019.5 0.0
25/02:30pm 19.1 15.7 10.6 58 4.7 SE 19 28 10 15 1022.5 1020.1 0.0
25/02:00pm 19.2 15.9 11.0 59 4.6 ESE 19 26 10 14 1022.4 1020.0 0.0
25/01:30pm 19.4 16.4 10.7 57 4.8 ESE 17 22 9 12 1022.7 1020.3 0.0
25/01:00pm 18.9 16.3 10.7 59 4.5 E 15 19 8 10 1022.8 1020.4 0.0
25/12:30pm 18.5 16.6 10.6 60 4.4 ESE 11 20 6 11 1022.9 1020.5 0.0
25/12:00pm 17.9 15.6 10.5 62 4.1 ESE 13 19 7 10 1023.0 1020.6 0.0
25/11:30am 17.9 15.2 10.3 61 4.2 ESE 15 26 8 14 1023.1 1020.7 0.0
25/11:00am 17.4 16.0 10.8 65 3.6 ESE 9 17 5 9 1023.4 1021.0 0.0
25/10:30am 16.5 14.3 10.8 69 3.1 SE 13 17 7 9 1023.7 1021.3 0.0
25/10:00am 16.4 13.9 10.9 70 3.0 SE 15 19 8 10 1023.4 1021.0 0.0
25/09:30am 16.1 14.4 11.1 72 2.8 SE 11 17 6 9 1023.3 1020.9 0.0
25/09:00am 15.8 13.3 11.0 73 2.6 ESE 15 19 8 10 1023.0 1020.6 0.0
25/08:30am 15.4 12.9 11.0 75 2.4 E 15 19 8 10 1022.9 1020.5 0.0
25/08:00am 15.3 12.9 11.3 77 2.2 E 15 17 8 9 1022.6 1020.2 0.0
25/07:30am 15.2 12.8 11.4 78 2.1 ENE 15 17 8 9 1022.3 1019.9 0.0
25/07:00am 15.3 13.0 11.7 79 2.0 ENE 15 17 8 9 1022.2 1019.8 0.0
25/06:30am 15.7 14.6 11.9 78 2.1 E 9 13 5 7 1021.8 1019.3 0.0
25/06:00am 15.8 14.7 12.0 78 2.1 ENE 9 15 5 8 1021.8 1019.3 0.0
25/05:30am 15.9 14.5 12.1 78 2.1 ENE 11 15 6 8 1021.7 1019.2 0.0
25/05:15am 15.9 14.5 12.1 78 2.1 ENE 11 15 6 8 1021.5 1019.1 0.0
25/05:00am 15.8 14.4 12.2 79 2.0 ENE 11 13 6 7 1021.4 1019.0 0.0
25/04:30am 15.8 14.0 12.2 79 2.0 ENE 13 17 7 9 1021.3 1018.9 0.0
25/04:00am 16.0 14.3 12.4 79 2.0 E 13 15 7 8 1021.3 1018.9 0.0
25/03:30am 16.2 14.9 12.6 79 2.0 ENE 11 17 6 9 1021.3 1018.9 0.0
25/03:00am 16.6 14.9 12.6 77 2.3 E 13 19 7 10 1021.3 1018.9 0.0
25/02:30am 16.8 15.1 12.5 76 2.4 E 13 17 7 9 1021.4 1019.0 0.0
25/02:00am 17.0 15.0 12.7 76 2.4 E 15 19 8 10 1021.8 1019.3 0.0
25/01:30am 17.0 14.9 12.5 75 2.6 E 15 19 8 10 1022.0 1019.5 0.0
25/01:00am 17.3 15.6 12.6 74 2.7 ESE 13 17 7 9 1022.2 1019.8 0.0
25/12:30am 17.4 15.8 12.7 74 2.7 ESE 13 17 7 9 1022.3 1019.9 0.0
25/12:00am 17.7 16.1 12.8 73 2.8 ESE 13 19 7 10 1022.5 1020.1 0.0
 
Date/Time
EDT
Temp
°C
App
Temp
°C
Dew
Point
°C
Rel
Hum
%
Delta-T
°C
Wind Press
QNH
hPa
Press
MSL
hPa
Rain since
9am
mm
Dir  Spd
km/h
Gust
km/h
Spd
kts
Gust
kts
24/11:30pm 18.2 17.0 12.9 71 3.1 SE 11 17 6 9 1022.7 1020.3 0.0
24/11:00pm 18.3 16.8 13.0 71 3.1 SE 13 24 7 13 1022.8 1020.4 0.0
24/10:30pm 18.2 16.4 13.3 73 2.8 ESE 15 19 8 10 1022.9 1020.5 0.0
24/10:00pm 18.3 15.8 13.4 73 2.8 SE 19 26 10 14 1022.9 1020.5 0.0
24/09:30pm 18.4 16.0 13.9 75 2.6 SE 19 30 10 16 1022.7 1020.3 0.0
24/09:02pm 18.4 16.1 14.1 76 2.5 SE 19 28 10 15 1022.4 1020.0 0.0
24/09:00pm 18.3 16.3 14.0 76 2.5 SE 17 28 9 15 1022.3 1019.9 0.0
24/08:30pm 18.3 16.0 14.0 76 2.5 SE 19 30 10 16 1021.7 1019.2 0.0
24/08:00pm 18.6 16.3 14.1 75 2.6 ESE 19 30 10 16 1020.8 1018.4 0.0
24/07:30pm 20.4 17.7 14.5 69 3.5 E 22 35 12 19 1020.1 1017.6 0.0
24/07:00pm 21.6 17.4 14.7 65 4.2 E 30 41 16 22 1019.3 1016.9 0.0
24/06:55pm 21.9 17.8 14.8 64 4.3 ESE 30 48 16 26 1019.1 1016.7 0.0
24/06:30pm 23.7 17.6 15.2 59 5.2 E 41 52 22 28 1018.3 1015.8 0.0
24/06:00pm 27.4 23.5 14.4 45 8.0 ENE 28 41 15 22 1017.4 1015.0 0.0
24/05:30pm 32.9 26.8 -4.1 9 17.3 WNW 19 28 10 15 1016.8 1014.3 0.0
24/05:00pm 31.4 26.8 6.5 21 13.7 NNW 20 30 11 16 1016.7 1014.2 0.0
24/04:30pm 32.0 29.0 7.6 22 13.7 NNE 13 22 7 12 1017.0 1014.5 0.0
24/04:00pm 31.7 29.5 9.3 25 12.9 W 11 28 6 15 1017.4 1015.0 0.0
24/03:30pm 31.3 29.4 10.6 28 12.2 NNW 11 19 6 10 1018.0 1015.5 0.0
24/03:00pm 30.3 26.7 9.8 28 11.8 NNE 19 30 10 16 1018.5 1016.0 0.0
24/02:30pm 29.0 27.1 10.6 32 10.7 NNE 11 19 6 10 1019.0 1016.6 0.0
24/02:00pm 29.3 26.9 11.4 33 10.6 NNW 15 24 8 13 1019.7 1017.3 0.0
24/01:30pm 28.5 28.2 13.2 39 9.3 NNE 7 15 4 8 1020.2 1017.7 0.0
24/01:00pm 26.9 25.6 13.6 44 8.0 N 13 22 7 12 1020.7 1018.3 0.0
24/12:30pm 25.8 24.0 13.3 46 7.5 N 15 26 8 14 1021.2 1018.8 0.0
24/12:00pm 25.6 24.0 13.8 48 7.1 N 15 20 8 11 1021.7 1019.2 0.0
24/11:30am 24.5 23.3 14.0 52 6.3 NE 13 26 7 14 1022.0 1019.5 0.0
24/11:00am 23.9 23.2 14.3 55 5.8 E 11 17 6 9 1022.4 1020.0 0.0
24/10:30am 22.2 21.0 14.1 60 4.9 NE 13 20 7 11 1022.8 1020.4 0.0
24/10:00am 21.6 20.1 14.3 63 4.4 NE 15 22 8 12 1022.8 1020.4 0.0
24/09:30am 19.9 18.9 14.7 72 3.1 NE 13 19 7 10 1022.9 1020.5 0.0
24/09:00am 19.8 18.6 15.0 74 2.9 NE 15 17 8 9 1022.8 1020.4 0.0
24/08:30am 19.0 19.2 14.7 76 2.6 SE 7 9 4 5 1022.6 1020.2 0.0
24/08:00am 17.6 17.3 14.3 81 1.9 SE 9 13 5 7 1022.4 1020.0 0.0
24/07:56am 17.4 17.1 14.3 82 1.8 SE 9 13 5 7 1022.3 1019.9 0.0
24/07:30am 16.8 15.6 13.9 83 1.7 ESE 13 15 7 8 1022.1 1019.7 0.0
24/07:00am 14.9 14.1 12.9 88 1.1 SE 9 11 5 6 1021.8 1019.3 0.0
24/06:30am 15.4 13.9 13.1 86 1.3 ESE 13 15 7 8 1021.3 1018.9 0.0
24/06:00am 15.5 14.7 14.0 91 0.9 ESE 11 15 6 8 1020.9 1018.5 0.0
24/05:30am 15.4 14.8 13.4 88 1.1 SE 9 13 5 7 1020.8 1018.4 0.0
24/05:00am 16.8 16.7 15.0 89 1.1 ESE 9 11 5 6 1020.5 1018.1 0.0
24/04:30am 17.2 16.4 15.0 87 1.3 ESE 13 15 7 8 1020.2 1017.7 0.0
24/04:00am 17.5 16.9 14.6 83 1.7 ESE 11 15 6 8 1020.2 1017.7 0.0
24/03:30am 18.4 17.5 14.9 80 2.1 ESE 13 17 7 9 1020.0 1017.5 0.0
24/03:00am 18.5 17.9 14.6 78 2.3 ESE 11 15 6 8 1019.7 1017.3 0.0
24/02:30am 17.3 16.2 13.0 76 2.5 SE 11 13 6 7 1019.7 1017.3 0.0
24/02:00am 18.2 17.5 13.3 73 2.8 SE 9 13 5 7 1019.6 1017.2 0.0
24/01:30am 17.4 15.3 8.3 55 4.8 SE 9 13 5 7 1019.7 1017.3 0.0
24/01:00am 18.4 17.4 5.6 43 6.4 CALM 0 0 0 0 1019.6 1017.2 0.0
24/12:30am 18.1 15.6 5.0 42 6.5 NW 7 9 4 5 1019.7 1017.3 0.0
24/12:00am 17.6 15.8 5.5 45 6.0 NE 4 9 2 5 1019.6 1017.2 0.0
 
Date/Time
EDT
Temp
°C
App
Temp
°C
Dew
Point
°C
Rel
Hum
%
Delta-T
°C
Wind Press
QNH
hPa
Press
MSL
hPa
Rain since
9am
mm
Dir  Spd
km/h
Gust
km/h
Spd
kts
Gust
kts
23/11:30pm 19.1 16.5 3.3 35 7.6 SE 6 9 3 5 1019.5 1017.1 0.0
23/11:00pm 19.8 18.5 4.3 36 7.7 CALM 0 0 0 0 1019.4 1017.0 0.0
23/10:30pm 20.6 18.1 3.8 33 8.3 NE 6 7 3 4 1019.4 1017.0 0.0
23/10:00pm 20.7 17.6 3.4 32 8.5 ENE 9 11 5 6 1019.3 1016.9 0.0
23/09:30pm 22.3 18.9 3.9 30 9.2 E 11 13 6 7 1019.1 1016.7 0.0
23/09:00pm 23.9 22.6 4.3 28 10.0 CALM 0 0 0 0 1018.8 1016.3 0.0
23/08:30pm 28.5 25.2 2.7 19 13.1 W 9 11 5 6 1018.4 1015.9 0.0
23/08:00pm 29.7 26.2 3.6 19 13.6 W 11 13 6 7 1018.1 1015.6 0.0
23/07:30pm 31.8 28.9 4.6 18 14.6 W 9 13 5 7 1017.7 1015.3 0.0
23/07:00pm 33.0 29.3 4.7 17 15.3 WSW 13 19 7 10 1017.5 1015.1 0.0
23/06:30pm 33.5 29.4 4.2 16 15.7 W 15 20 8 11 1017.4 1015.0 0.0
23/06:00pm 34.2 29.2 4.8 16 16.0 WNW 20 26 11 14 1017.3 1014.8 0.0
23/05:30pm 34.2 30.0 5.7 17 15.7 WNW 17 26 9 14 1017.4 1015.0 0.0
23/05:00pm 34.9 30.4 6.2 17 16.0 WNW 19 33 10 18 1017.3 1014.8 0.0
23/04:37pm 34.9 30.2 6.2 17 16.0 WNW 20 50 11 27 1017.4 1015.0 0.0
23/04:30pm 34.5 31.1 5.9 17 15.9 W 13 17 7 9 1017.5 1015.1 0.0
23/04:00pm 34.9 30.2 6.2 17 16.0 WNW 20 32 11 17 1017.7 1015.3 0.0
23/03:30pm 34.3 29.7 5.8 17 15.8 W 19 33 10 18 1017.8 1015.4 0.0
23/03:00pm 34.3 30.3 6.6 18 15.5 W 17 30 9 16 1018.3 1015.8 0.0
23/02:30pm 34.5 29.6 6.7 18 15.6 W 22 33 12 18 1018.6 1016.1 0.0
23/02:00pm 33.6 27.5 6.8 19 15.0 NW 28 39 15 21 1018.9 1016.4 0.0
23/01:30pm 33.4 28.0 8.1 21 14.5 NW 26 33 14 18 1019.3 1016.9 0.0
23/01:00pm 32.5 28.5 10.5 26 13.0 NW 22 39 12 21 1019.5 1017.1 0.0
23/12:30pm 31.3 26.9 11.7 30 11.7 NW 26 35 14 19 1019.9 1017.4 0.0
23/12:00pm 30.4 26.7 11.4 31 11.3 NW 22 32 12 17 1020.3 1017.8 0.0

Other Formats:

Comma delimited format used in spreadsheet applications
http://www.bom.gov.au/fwo/IDN60801/IDN60801.94926.axf

JavaScript Object Notation format (JSON) in row-major order
http://www.bom.gov.au/fwo/IDN60801/IDN60801.94926.json